createdAt,value
2017-04-10T00:00:02.403Z,0
2017-04-10T00:01:12.690Z,0
2017-04-10T00:02:22.337Z,0
2017-04-10T00:03:32.607Z,0
2017-04-10T00:04:42.589Z,0
2017-04-10T00:05:52.857Z,0
2017-04-10T00:07:03.145Z,0
2017-04-10T00:08:13.095Z,0
2017-04-10T00:09:22.759Z,0
2017-04-10T00:10:33.055Z,0
2017-04-10T00:11:43.342Z,0
2017-04-10T00:12:53.617Z,0
2017-04-10T00:14:04.161Z,0
2017-04-10T00:15:14.423Z,0
2017-04-10T00:16:24.697Z,0
2017-04-10T00:17:34.046Z,0
2017-04-10T00:18:43.998Z,0
2017-04-10T00:19:54.531Z,0
2017-04-10T00:21:04.797Z,0
2017-04-10T00:22:15.070Z,0
2017-04-10T00:23:25.581Z,0
2017-04-10T00:24:35.558Z,0
2017-04-10T00:25:46.126Z,0
2017-04-10T00:26:56.419Z,0
2017-04-10T00:28:06.699Z,0
2017-04-10T00:29:16.655Z,0
2017-04-10T00:30:26.619Z,0
2017-04-10T00:31:37.150Z,0
2017-04-10T00:32:47.434Z,0
2017-04-10T00:33:57.399Z,0
2017-04-10T00:35:07.372Z,0
2017-04-10T00:36:17.342Z,0
2017-04-10T00:37:27.558Z,0
2017-04-10T00:38:37.522Z,0
2017-04-10T00:39:47.177Z,0
2017-04-10T00:40:57.449Z,0
2017-04-10T00:42:07.713Z,0
2017-04-10T00:43:17.918Z,0
2017-04-10T00:44:27.568Z,0
2017-04-10T00:45:37.846Z,0
2017-04-10T00:46:48.112Z,0
2017-04-10T00:47:58.412Z,0
2017-04-10T00:49:08.628Z,0
2017-04-10T00:50:18.899Z,0
2017-04-10T00:51:29.183Z,0
2017-04-10T00:52:39.157Z,0
2017-04-10T00:53:49.420Z,0
2017-04-10T00:54:59.880Z,0
2017-04-10T00:56:10.170Z,0
2017-04-10T00:57:20.126Z,0
2017-04-10T00:58:30.412Z,0
2017-04-10T00:59:40.680Z,0
2017-04-10T01:00:51.224Z,0
2017-04-10T01:02:01.189Z,0
2017-04-10T01:03:11.462Z,0
2017-04-10T01:04:21.427Z,0
2017-04-10T01:05:31.384Z,0
2017-04-10T01:06:41.642Z,0
2017-04-10T01:07:51.936Z,0
2017-04-10T01:09:02.213Z,0
2017-04-10T01:10:12.486Z,0
2017-04-10T01:11:22.776Z,0
2017-04-10T01:12:32.983Z,0
2017-04-10T01:13:43.264Z,0
2017-04-10T01:14:52.928Z,0
2017-04-10T01:16:03.211Z,0
2017-04-10T01:17:13.497Z,0
2017-04-10T01:18:24.021Z,0
2017-04-10T01:19:33.986Z,0
2017-04-10T01:20:43.949Z,0
2017-04-10T01:21:54.230Z,0
2017-04-10T01:23:04.498Z,0
2017-04-10T01:24:15.068Z,0
2017-04-10T01:25:25.344Z,0
2017-04-10T01:26:35.616Z,0
2017-04-10T01:27:45.888Z,0
2017-04-10T01:28:56.164Z,0
2017-04-10T01:30:06.420Z,0
2017-04-10T01:31:16.686Z,0
2017-04-10T01:32:26.970Z,0
2017-04-10T01:33:37.252Z,0
2017-04-10T01:34:47.554Z,0
2017-04-10T01:35:57.765Z,0
2017-04-10T01:37:08.040Z,0
2017-04-10T01:38:18.009Z,0
2017-04-10T01:39:27.968Z,0
2017-04-10T01:40:38.245Z,0
2017-04-10T01:41:48.819Z,0
2017-04-10T01:42:59.125Z,0
2017-04-10T01:44:09.692Z,0
2017-04-10T01:45:19.977Z,0
2017-04-10T01:46:29.940Z,0
2017-04-10T01:47:40.455Z,0
2017-04-10T01:48:50.410Z,0
2017-04-10T01:50:00.681Z,0
2017-04-10T01:51:10.020Z,0
2017-04-10T01:52:20.299Z,0
2017-04-10T01:53:30.820Z,0
2017-04-10T01:54:41.098Z,0
2017-04-10T01:55:51.365Z,0
2017-04-10T01:57:01.653Z,0
2017-04-10T01:58:11.608Z,0
2017-04-10T01:59:22.402Z,0
2017-04-10T02:00:32.676Z,0
2017-04-10T02:01:42.948Z,0
2017-04-10T02:02:53.206Z,0
2017-04-10T02:04:03.483Z,0
2017-04-10T02:05:14.001Z,0
2017-04-10T02:06:24.280Z,0
2017-04-10T02:07:34.546Z,0
2017-04-10T02:08:44.829Z,0
2017-04-10T02:09:54.785Z,0
2017-04-10T02:11:04.991Z,0
2017-04-10T02:12:14.644Z,0
2017-04-10T02:13:24.610Z,0
2017-04-10T02:14:34.591Z,0
2017-04-10T02:15:44.855Z,0
2017-04-10T02:16:55.387Z,0
2017-04-10T02:18:05.382Z,0
2017-04-10T02:19:15.656Z,0
2017-04-10T02:20:25.927Z,0
2017-04-10T02:21:35.883Z,0
2017-04-10T02:22:46.406Z,0
2017-04-10T02:23:56.371Z,0
2017-04-10T02:25:06.653Z,0
2017-04-10T02:26:16.926Z,0
2017-04-10T02:27:27.215Z,0
2017-04-10T02:28:37.755Z,0
2017-04-10T02:29:48.036Z,0
2017-04-10T02:30:58.309Z,0
2017-04-10T02:32:08.595Z,0
2017-04-10T02:33:18.887Z,0
2017-04-10T02:34:29.410Z,0
2017-04-10T02:35:39.394Z,0
2017-04-10T02:36:49.669Z,0
2017-04-10T02:37:59.936Z,0
2017-04-10T02:39:10.210Z,0
2017-04-10T02:40:20.421Z,0
2017-04-10T02:41:30.684Z,0
2017-04-10T02:42:40.960Z,0
2017-04-10T02:43:50.927Z,0
2017-04-10T02:45:01.205Z,0
2017-04-10T02:46:11.726Z,0
2017-04-10T02:47:22.007Z,0
2017-04-10T02:48:32.288Z,0
2017-04-10T02:49:42.553Z,0
2017-04-10T02:50:52.618Z,0
2017-04-10T02:52:03.149Z,0
2017-04-10T02:53:13.434Z,0
2017-04-10T02:54:23.400Z,0
2017-04-10T02:55:33.051Z,0
2017-04-10T02:56:43.324Z,0
2017-04-10T02:57:53.847Z,0
2017-04-10T02:59:04.129Z,0
2017-04-10T03:00:14.414Z,0
2017-04-10T03:01:24.696Z,0
2017-04-10T03:02:34.977Z,0
2017-04-10T03:03:45.513Z,0
2017-04-10T03:04:55.793Z,0
2017-04-10T03:06:05.765Z,0
2017-04-10T03:07:16.057Z,0
2017-04-10T03:08:26.332Z,0
2017-04-10T03:09:36.545Z,0
2017-04-10T03:10:46.815Z,0
2017-04-10T03:11:57.096Z,0
2017-04-10T03:13:07.362Z,0
2017-04-10T03:14:17.631Z,0
2017-04-10T03:15:28.153Z,0
2017-04-10T03:16:38.162Z,0
2017-04-10T03:17:48.435Z,0
2017-04-10T03:18:58.087Z,0
2017-04-10T03:20:08.362Z,0
2017-04-10T03:21:18.886Z,0
2017-04-10T03:22:28.845Z,0
2017-04-10T03:23:38.821Z,0
2017-04-10T03:24:48.801Z,0
2017-04-10T03:25:59.099Z,0
2017-04-10T03:27:09.621Z,0
2017-04-10T03:28:19.270Z,0
2017-04-10T03:29:29.552Z,0
2017-04-10T03:30:39.841Z,0
2017-04-10T03:31:50.113Z,0
2017-04-10T03:33:00.645Z,0
2017-04-10T03:34:10.610Z,0
2017-04-10T03:35:20.874Z,0
2017-04-10T03:36:30.840Z,0
2017-04-10T03:37:41.136Z,0
2017-04-10T03:38:51.729Z,0
2017-04-10T03:40:01.694Z,0
2017-04-10T03:41:11.648Z,0
2017-04-10T03:42:21.917Z,0
2017-04-10T03:43:32.230Z,0
2017-04-10T03:44:42.436Z,0
2017-04-10T03:45:52.746Z,0
2017-04-10T03:47:03.009Z,0
2017-04-10T03:48:13.276Z,0
2017-04-10T03:49:22.615Z,0
2017-04-10T03:50:32.877Z,0
2017-04-10T03:51:43.167Z,0
2017-04-10T03:52:53.447Z,0
2017-04-10T03:54:03.106Z,0
2017-04-10T03:55:12.749Z,0
2017-04-10T03:56:22.960Z,0
2017-04-10T03:57:33.239Z,4
2017-04-10T03:58:43.506Z,8
2017-04-10T03:59:53.762Z,8
2017-04-10T04:01:04.036Z,8
2017-04-10T04:02:14.567Z,12
2017-04-10T04:03:24.524Z,12
2017-04-10T04:04:34.806Z,12
2017-04-10T04:05:44.956Z,16
2017-04-10T04:06:54.914Z,16
2017-04-10T04:08:04.821Z,20
2017-04-10T04:09:14.776Z,28
2017-04-10T04:10:24.745Z,28
2017-04-10T04:11:35.018Z,32
2017-04-10T04:12:44.980Z,40
2017-04-10T04:13:55.498Z,44
2017-04-10T04:15:05.772Z,48
2017-04-10T04:16:15.735Z,52
2017-04-10T04:17:26.016Z,60
2017-04-10T04:18:35.982Z,68
2017-04-10T04:19:46.510Z,76
2017-04-10T04:20:56.779Z,84
2017-04-10T04:22:07.301Z,92
2017-04-10T04:23:17.172Z,100
2017-04-10T04:24:27.133Z,112
2017-04-10T04:25:37.361Z,120
2017-04-10T04:26:47.050Z,132
2017-04-10T04:27:57.334Z,144
2017-04-10T04:29:07.287Z,156
2017-04-10T04:30:16.940Z,172
2017-04-10T04:31:27.475Z,184
2017-04-10T04:32:37.449Z,204
2017-04-10T04:33:47.400Z,216
2017-04-10T04:34:57.682Z,240
2017-04-10T04:36:07.646Z,256
2017-04-10T04:37:17.238Z,276
2017-04-10T04:38:27.206Z,300
2017-04-10T04:39:37.467Z,320
2017-04-10T04:40:47.129Z,352
2017-04-10T04:41:56.773Z,384
2017-04-10T04:43:07.287Z,412
2017-04-10T04:44:17.249Z,440
2017-04-10T04:45:27.533Z,472
2017-04-10T04:46:37.800Z,516
2017-04-10T04:47:48.069Z,548
2017-04-10T04:48:58.279Z,560
2017-04-10T04:50:08.250Z,596
2017-04-10T04:51:18.520Z,628
2017-04-10T04:52:28.802Z,668
2017-04-10T04:53:38.766Z,708
2017-04-10T04:54:48.399Z,752
2017-04-10T04:55:58.678Z,800
2017-04-10T04:57:08.950Z,868
2017-04-10T04:58:19.234Z,936
2017-04-10T04:59:29.500Z,1000
2017-04-10T05:00:39.720Z,1060
2017-04-10T05:01:49.986Z,1104
2017-04-10T05:03:00.260Z,1128
2017-04-10T05:04:10.230Z,1188
2017-04-10T05:05:20.188Z,1240
2017-04-10T05:06:30.714Z,1292
2017-04-10T05:07:40.988Z,1320
2017-04-10T05:08:50.953Z,1332
2017-04-10T05:10:01.221Z,1332
2017-04-10T05:11:11.203Z,1356
2017-04-10T05:12:21.719Z,1352
2017-04-10T05:13:32.002Z,1364
2017-04-10T05:14:41.973Z,1404
2017-04-10T05:15:52.245Z,1484
2017-04-10T05:17:02.214Z,1552
2017-04-10T05:18:12.750Z,1612
2017-04-10T05:19:23.024Z,1732
2017-04-10T05:20:32.682Z,1812
2017-04-10T05:21:42.956Z,1864
2017-04-10T05:22:52.923Z,1896
2017-04-10T05:24:03.139Z,1952
2017-04-10T05:25:13.414Z,2012
2017-04-10T05:26:23.686Z,2060
2017-04-10T05:27:33.650Z,2092
2017-04-10T05:28:43.619Z,2112
2017-04-10T05:29:53.838Z,2140
2017-04-10T05:31:03.813Z,2164
2017-04-10T05:32:13.800Z,2184
2017-04-10T05:33:24.077Z,2204
2017-04-10T05:34:34.042Z,2216
2017-04-10T05:35:44.612Z,2232
2017-04-10T05:36:54.567Z,2260
2017-04-10T05:38:04.847Z,2288
2017-04-10T05:39:14.826Z,2312
2017-04-10T05:40:25.102Z,2328
2017-04-10T05:41:35.680Z,2356
2017-04-10T05:42:45.952Z,2364
2017-04-10T05:43:55.927Z,2372
2017-04-10T05:45:05.896Z,2360
2017-04-10T05:46:16.171Z,2352
2017-04-10T05:47:26.706Z,2372
2017-04-10T05:48:37.047Z,2384
2017-04-10T05:49:47.011Z,2384
2017-04-10T05:50:57.291Z,2388
2017-04-10T05:52:07.247Z,2400
2017-04-10T05:53:17.783Z,2400
2017-04-10T05:54:28.066Z,2392
2017-04-10T05:55:38.339Z,2396
2017-04-10T05:56:48.307Z,2408
2017-04-10T05:57:58.591Z,2388
2017-04-10T05:59:08.858Z,2400
2017-04-10T06:00:19.132Z,2400
2017-04-10T06:01:29.425Z,2376
2017-04-10T06:02:39.745Z,2388
2017-04-10T06:03:49.715Z,2396
2017-04-10T06:05:00.242Z,2392
2017-04-10T06:06:09.903Z,2380
2017-04-10T06:07:20.183Z,2400
2017-04-10T06:08:30.460Z,2412
2017-04-10T06:09:40.734Z,2420
2017-04-10T06:10:50.984Z,2432
2017-04-10T06:12:01.275Z,2432
2017-04-10T06:13:11.236Z,2440
2017-04-10T06:14:21.205Z,2440
2017-04-10T06:15:31.479Z,2456
2017-04-10T06:16:41.711Z,2424
2017-04-10T06:17:51.687Z,2444
2017-04-10T06:19:01.349Z,2452
2017-04-10T06:20:11.630Z,2456
2017-04-10T06:21:21.602Z,2468
2017-04-10T06:22:32.156Z,2484
2017-04-10T06:23:41.506Z,2492
2017-04-10T06:24:51.789Z,2484
2017-04-10T06:26:01.771Z,2504
2017-04-10T06:27:12.064Z,2544
2017-04-10T06:28:22.613Z,2540
2017-04-10T06:29:33.248Z,2528
2017-04-10T06:30:43.201Z,2536
2017-04-10T06:31:53.172Z,2528
2017-04-10T06:33:03.480Z,2544
2017-04-10T06:34:13.693Z,2548
2017-04-10T06:35:23.980Z,2544
2017-04-10T06:36:34.258Z,2536
2017-04-10T06:37:44.237Z,2532
2017-04-10T06:38:54.570Z,2532
2017-04-10T06:40:05.115Z,2540
2017-04-10T06:41:15.103Z,2524
2017-04-10T06:42:25.418Z,2536
2017-04-10T06:43:35.728Z,2568
2017-04-10T06:44:46.013Z,2576
2017-04-10T06:45:56.544Z,2588
2017-04-10T06:47:06.529Z,2556
2017-04-10T06:48:16.814Z,2556
2017-04-10T06:49:27.085Z,2520
2017-04-10T06:50:37.371Z,2524
2017-04-10T06:51:47.963Z,2544
2017-04-10T06:52:58.255Z,2544
2017-04-10T06:54:08.525Z,2548
2017-04-10T06:55:18.803Z,2556
2017-04-10T06:56:29.099Z,2556
2017-04-10T06:57:39.083Z,2568
2017-04-10T06:58:49.058Z,2552
2017-04-10T06:59:59.036Z,2556
2017-04-10T07:01:09.326Z,2544
2017-04-10T07:02:19.289Z,2532
2017-04-10T07:03:29.832Z,2528
2017-04-10T07:04:40.171Z,2528
2017-04-10T07:05:50.459Z,2528
2017-04-10T07:07:00.743Z,2532
2017-04-10T07:08:10.723Z,2548
2017-04-10T07:09:20.966Z,2544
2017-04-10T07:10:30.937Z,2540
2017-04-10T07:11:40.953Z,2528
2017-04-10T07:12:50.917Z,2552
2017-04-10T07:14:01.207Z,2548
2017-04-10T07:15:11.111Z,2536
2017-04-10T07:16:21.397Z,2524
2017-04-10T07:17:31.369Z,2556
2017-04-10T07:18:41.660Z,2540
2017-04-10T07:19:51.966Z,2532
2017-04-10T07:21:02.498Z,2520
2017-04-10T07:22:12.788Z,2520
2017-04-10T07:23:22.759Z,2488
2017-04-10T07:24:32.413Z,2452
2017-04-10T07:25:41.772Z,2440
2017-04-10T07:26:52.326Z,2416
2017-04-10T07:28:02.329Z,2376
2017-04-10T07:29:12.636Z,2344
2017-04-10T07:30:22.908Z,2340
2017-04-10T07:31:32.902Z,2344
2017-04-10T07:32:43.507Z,2336
2017-04-10T07:33:53.170Z,2332
2017-04-10T07:35:03.174Z,2320
2017-04-10T07:36:13.159Z,2320
2017-04-10T07:37:23.452Z,2352
2017-04-10T07:38:33.683Z,2388
2017-04-10T07:39:43.661Z,2380
2017-04-10T07:40:53.643Z,2392
2017-04-10T07:42:03.967Z,2392
2017-04-10T07:43:14.246Z,2376
2017-04-10T07:44:24.897Z,2388
2017-04-10T07:45:35.483Z,2388
2017-04-10T07:46:45.833Z,2368
2017-04-10T07:47:55.810Z,2364
2017-04-10T07:49:06.102Z,2360
2017-04-10T07:50:16.643Z,2360
2017-04-10T07:51:26.977Z,2344
2017-04-10T07:52:36.417Z,2332
2017-04-10T07:53:46.074Z,2328
2017-04-10T07:54:56.363Z,2320
2017-04-10T07:56:06.899Z,2304
2017-04-10T07:57:17.180Z,2308
2017-04-10T07:58:27.486Z,2304
2017-04-10T07:59:37.971Z,2288
2017-04-10T08:00:47.946Z,2280
2017-04-10T08:01:58.484Z,2280
2017-04-10T08:03:08.469Z,2284
2017-04-10T08:04:18.748Z,2280
2017-04-10T08:05:28.717Z,2284
2017-04-10T08:06:38.995Z,2288
2017-04-10T08:07:49.273Z,2292
2017-04-10T08:08:59.245Z,2292
2017-04-10T08:10:09.579Z,2308
2017-04-10T08:11:19.896Z,2300
2017-04-10T08:12:30.262Z,2292
2017-04-10T08:13:40.848Z,2260
2017-04-10T08:14:51.134Z,2224
2017-04-10T08:16:01.414Z,2148
2017-04-10T08:17:11.698Z,2060
2017-04-10T08:18:22.000Z,1988
2017-04-10T08:19:32.281Z,1940
2017-04-10T08:20:42.595Z,1904
2017-04-10T08:21:52.898Z,1856
2017-04-10T08:23:02.876Z,1800
2017-04-10T08:24:13.171Z,1780
2017-04-10T08:25:23.384Z,1768
2017-04-10T08:26:33.695Z,1764
2017-04-10T08:27:44.000Z,1764
2017-04-10T08:28:54.312Z,1764
2017-04-10T08:30:04.325Z,1760
2017-04-10T08:31:14.884Z,1752
2017-04-10T08:32:25.394Z,1752
2017-04-10T08:33:35.376Z,1748
2017-04-10T08:34:45.353Z,1744
2017-04-10T08:35:55.344Z,1736
2017-04-10T08:37:05.900Z,1744
2017-04-10T08:38:16.185Z,1760
2017-04-10T08:39:26.162Z,1760
2017-04-10T08:40:36.129Z,1760
2017-04-10T08:41:46.421Z,1752
2017-04-10T08:42:56.649Z,1752
2017-04-10T08:44:06.964Z,1752
2017-04-10T08:45:16.933Z,1744
2017-04-10T08:46:27.348Z,1740
2017-04-10T08:47:37.640Z,1740
2017-04-10T08:48:48.167Z,1740
2017-04-10T08:49:58.142Z,1736
2017-04-10T08:51:08.453Z,1736
2017-04-10T08:52:18.802Z,1736
2017-04-10T08:53:29.085Z,1716
2017-04-10T08:54:39.314Z,1712
2017-04-10T08:55:49.598Z,1704
2017-04-10T08:56:59.582Z,1688
2017-04-10T08:58:10.065Z,1684
2017-04-10T08:59:20.045Z,1676
2017-04-10T09:00:30.575Z,1672
2017-04-10T09:01:40.868Z,1680
2017-04-10T09:02:50.852Z,1676
2017-04-10T09:04:01.136Z,1668
2017-04-10T09:05:11.416Z,1672
2017-04-10T09:06:22.009Z,1684
2017-04-10T09:07:32.296Z,1680
2017-04-10T09:08:42.577Z,1676
2017-04-10T09:09:52.871Z,1660
2017-04-10T09:11:03.163Z,1664
2017-04-10T09:12:13.597Z,1664
2017-04-10T09:13:24.039Z,1656
2017-04-10T09:14:34.325Z,1652
2017-04-10T09:15:44.622Z,1644
2017-04-10T09:16:54.281Z,1624
2017-04-10T09:18:04.808Z,1628
2017-04-10T09:19:14.793Z,1632
2017-04-10T09:20:24.807Z,1620
2017-04-10T09:21:35.102Z,1612
2017-04-10T09:22:45.398Z,1608
2017-04-10T09:23:55.943Z,1608
2017-04-10T09:25:05.913Z,1608
2017-04-10T09:26:16.444Z,1608
2017-04-10T09:27:26.726Z,1616
2017-04-10T09:28:36.710Z,1620
2017-04-10T09:29:46.319Z,1612
2017-04-10T09:30:55.677Z,1616
2017-04-10T09:32:05.981Z,1628
2017-04-10T09:33:16.260Z,1624
2017-04-10T09:34:26.552Z,1628
2017-04-10T09:35:37.091Z,1628
2017-04-10T09:36:47.370Z,1628
2017-04-10T09:37:57.662Z,1636
2017-04-10T09:39:07.645Z,1632
2017-04-10T09:40:17.610Z,1636
2017-04-10T09:41:27.877Z,1644
2017-04-10T09:42:38.195Z,1644
2017-04-10T09:43:48.496Z,1656
2017-04-10T09:44:58.683Z,1668
2017-04-10T09:46:09.211Z,1680
2017-04-10T09:47:19.806Z,1696
2017-04-10T09:48:30.125Z,1708
2017-04-10T09:49:40.416Z,1700
2017-04-10T09:50:50.717Z,1704
2017-04-10T09:52:01.031Z,1728
2017-04-10T09:53:11.581Z,1748
2017-04-10T09:54:21.553Z,1748
2017-04-10T09:55:31.833Z,1752
2017-04-10T09:56:42.109Z,1772
2017-04-10T09:57:52.409Z,1760
2017-04-10T09:59:03.022Z,1764
2017-04-10T10:00:12.688Z,1772
2017-04-10T10:01:23.008Z,1796
2017-04-10T10:02:32.982Z,1804
2017-04-10T10:03:43.274Z,1812
2017-04-10T10:04:53.510Z,1832
2017-04-10T10:06:03.792Z,1836
2017-04-10T10:07:13.773Z,1824
2017-04-10T10:08:24.056Z,1840
2017-04-10T10:09:34.337Z,1860
2017-04-10T10:10:44.880Z,1888
2017-04-10T10:11:55.178Z,1932
2017-04-10T10:13:05.463Z,1968
2017-04-10T10:14:15.737Z,2016
2017-04-10T10:15:25.723Z,2068
2017-04-10T10:16:36.011Z,2068
2017-04-10T10:17:46.308Z,2124
2017-04-10T10:18:56.615Z,2168
2017-04-10T10:20:06.625Z,2252
2017-04-10T10:21:16.612Z,2332
2017-04-10T10:22:27.195Z,2368
2017-04-10T10:23:36.872Z,2400
2017-04-10T10:24:47.165Z,2400
2017-04-10T10:25:57.462Z,2404
2017-04-10T10:27:07.123Z,2460
2017-04-10T10:28:17.379Z,2468
2017-04-10T10:29:27.668Z,2500
2017-04-10T10:30:37.944Z,2580
2017-04-10T10:31:48.227Z,2620
2017-04-10T10:32:58.187Z,2648
2017-04-10T10:34:08.722Z,2644
2017-04-10T10:35:18.396Z,2628
2017-04-10T10:36:28.697Z,2600
2017-04-10T10:37:38.977Z,2620
2017-04-10T10:38:48.636Z,2600
2017-04-10T10:39:58.949Z,2628
2017-04-10T10:41:09.296Z,2636
2017-04-10T10:42:19.274Z,2588
2017-04-10T10:43:29.246Z,2608
2017-04-10T10:44:39.533Z,2628
2017-04-10T10:45:50.063Z,2648
2017-04-10T10:47:00.354Z,2696
2017-04-10T10:48:10.670Z,2816
2017-04-10T10:49:20.644Z,2924
2017-04-10T10:50:30.929Z,2968
2017-04-10T10:51:41.353Z,3080
2017-04-10T10:52:51.657Z,3292
2017-04-10T10:54:01.929Z,3404
2017-04-10T10:55:11.902Z,3480
2017-04-10T10:56:22.229Z,3512
2017-04-10T10:57:32.761Z,3500
2017-04-10T10:58:43.064Z,3532
2017-04-10T10:59:53.359Z,3560
2017-04-10T11:01:03.864Z,3540
2017-04-10T11:02:13.841Z,3424
2017-04-10T11:03:24.379Z,3364
2017-04-10T11:04:34.354Z,3324
2017-04-10T11:05:44.336Z,3316
2017-04-10T11:06:54.619Z,3344
2017-04-10T11:08:04.894Z,3412
2017-04-10T11:09:14.852Z,3340
2017-04-10T11:10:24.524Z,3312
2017-04-10T11:11:34.806Z,3120
2017-04-10T11:12:44.777Z,2880
2017-04-10T11:13:54.758Z,2664
2017-04-10T11:15:04.985Z,2496
2017-04-10T11:16:15.279Z,2408
2017-04-10T11:17:25.560Z,2344
2017-04-10T11:18:35.848Z,2392
2017-04-10T11:19:45.822Z,2428
2017-04-10T11:20:56.137Z,2404
2017-04-10T11:22:06.424Z,2428
2017-04-10T11:23:16.713Z,2440
2017-04-10T11:24:26.394Z,2444
2017-04-10T11:25:36.684Z,2424
2017-04-10T11:26:47.231Z,2480
2017-04-10T11:27:57.527Z,2580
2017-04-10T11:29:07.499Z,2544
2017-04-10T11:30:17.792Z,2388
2017-04-10T11:31:28.070Z,2488
2017-04-10T11:32:38.302Z,3060
2017-04-10T11:33:48.576Z,3384
2017-04-10T11:34:58.862Z,3276
2017-04-10T11:36:09.161Z,3492
2017-04-10T11:37:19.468Z,3468
2017-04-10T11:38:30.058Z,3192
2017-04-10T11:39:39.726Z,2972
2017-04-10T11:40:49.398Z,3484
2017-04-10T11:41:59.680Z,3480
2017-04-10T11:43:09.336Z,3296
2017-04-10T11:44:19.562Z,3512
2017-04-10T11:45:29.543Z,3936
2017-04-10T11:46:39.514Z,3676
2017-04-10T11:47:49.814Z,3700
2017-04-10T11:49:00.091Z,3436
2017-04-10T11:50:10.314Z,3176
2017-04-10T11:51:20.600Z,3056
2017-04-10T11:52:30.576Z,2900
2017-04-10T11:53:40.865Z,2712
2017-04-10T11:54:51.165Z,2804
2017-04-10T11:56:01.712Z,2780
2017-04-10T11:57:11.988Z,2732
2017-04-10T11:58:22.297Z,2992
2017-04-10T11:59:31.956Z,2644
2017-04-10T12:00:41.932Z,2764
2017-04-10T12:01:52.470Z,2876
2017-04-10T12:03:02.451Z,3136
2017-04-10T12:04:12.422Z,3224
2017-04-10T12:05:22.704Z,3484
2017-04-10T12:06:32.669Z,4020
2017-04-10T12:07:43.195Z,4316
2017-04-10T12:08:53.161Z,4172
2017-04-10T12:10:03.146Z,4272
2017-04-10T12:11:13.134Z,4268
2017-04-10T12:12:23.419Z,4428
2017-04-10T12:13:33.946Z,3964
2017-04-10T12:14:43.612Z,3812
2017-04-10T12:15:53.904Z,3616
2017-04-10T12:17:04.203Z,3564
2017-04-10T12:18:14.500Z,3656
2017-04-10T12:19:24.790Z,3372
2017-04-10T12:20:35.070Z,2940
2017-04-10T12:21:45.356Z,3364
2017-04-10T12:22:55.320Z,3320
2017-04-10T12:24:05.306Z,3112
2017-04-10T12:25:15.216Z,3144
2017-04-10T12:26:25.499Z,3376
2017-04-10T12:27:35.778Z,3380
2017-04-10T12:28:46.063Z,3272
2017-04-10T12:29:56.356Z,3184
2017-04-10T12:31:06.941Z,3240
2017-04-10T12:32:17.229Z,3232
2017-04-10T12:33:27.514Z,3336
2017-04-10T12:34:37.804Z,3216
2017-04-10T12:35:48.085Z,2832
2017-04-10T12:36:58.665Z,3104
2017-04-10T12:38:08.647Z,3060
2017-04-10T12:39:18.625Z,3196
2017-04-10T12:40:28.909Z,3412
2017-04-10T12:41:38.879Z,3500
2017-04-10T12:42:49.092Z,3124
2017-04-10T12:43:59.061Z,3364
2017-04-10T12:45:09.370Z,3448
2017-04-10T12:46:19.350Z,3340
2017-04-10T12:47:29.634Z,3296
2017-04-10T12:48:40.164Z,3372
2017-04-10T12:49:50.153Z,3168
2017-04-10T12:51:00.434Z,3060
2017-04-10T12:52:10.735Z,3160
2017-04-10T12:53:21.042Z,2960
2017-04-10T12:54:31.285Z,3000
2017-04-10T12:55:41.574Z,2992
2017-04-10T12:56:51.860Z,3436
2017-04-10T12:58:02.156Z,3596
2017-04-10T12:59:12.462Z,3484
2017-04-10T13:00:22.741Z,3588
2017-04-10T13:01:33.027Z,3352
2017-04-10T13:02:43.319Z,3236
2017-04-10T13:03:53.639Z,2968
2017-04-10T13:05:03.935Z,2968
2017-04-10T13:06:14.168Z,2780
2017-04-10T13:07:23.831Z,3016
2017-04-10T13:08:34.117Z,2980
2017-04-10T13:09:44.420Z,2776
2017-04-10T13:10:54.713Z,2652
2017-04-10T13:12:05.251Z,2648
2017-04-10T13:13:15.542Z,2908
2017-04-10T13:14:25.822Z,2700
2017-04-10T13:15:36.103Z,2908
2017-04-10T13:16:46.085Z,2888
2017-04-10T13:17:56.621Z,2728
2017-04-10T13:19:06.895Z,2576
2017-04-10T13:20:16.555Z,2448
2017-04-10T13:21:26.531Z,2380
2017-04-10T13:22:36.818Z,2280
2017-04-10T13:23:47.356Z,800
2017-04-10T13:24:57.349Z,64
2017-04-10T13:26:07.632Z,56
2017-04-10T13:27:17.934Z,72
2017-04-10T13:28:28.219Z,56
2017-04-10T13:29:38.775Z,56
2017-04-10T13:30:48.738Z,60
2017-04-10T13:31:59.022Z,60
2017-04-10T13:33:08.986Z,52
2017-04-10T13:34:19.263Z,64
2017-04-10T13:35:29.484Z,56
2017-04-10T13:36:39.765Z,64
2017-04-10T13:37:50.393Z,48
2017-04-10T13:39:00.677Z,52
2017-04-10T13:40:10.974Z,52
2017-04-10T13:41:21.180Z,52
2017-04-10T13:42:31.467Z,60
2017-04-10T13:43:41.429Z,68
2017-04-10T13:44:51.712Z,72
2017-04-10T13:46:01.373Z,72
2017-04-10T13:47:11.899Z,72
2017-04-10T13:48:21.558Z,68
2017-04-10T13:49:31.204Z,60
2017-04-10T13:50:41.174Z,60
2017-04-10T13:51:50.829Z,56
2017-04-10T13:53:00.754Z,48
2017-04-10T13:54:11.259Z,48
2017-04-10T13:55:21.538Z,48
2017-04-10T13:56:31.813Z,48
2017-04-10T13:57:42.087Z,44
2017-04-10T13:58:52.664Z,44
2017-04-10T14:00:02.635Z,44
2017-04-10T14:01:12.621Z,48
2017-04-10T14:02:22.923Z,48
2017-04-10T14:03:33.210Z,56
2017-04-10T14:04:43.973Z,56
2017-04-10T14:05:54.266Z,52
2017-04-10T14:07:04.548Z,52
2017-04-10T14:08:14.213Z,56
2017-04-10T14:09:24.484Z,56
2017-04-10T14:10:35.009Z,64
2017-04-10T14:11:44.993Z,60
2017-04-10T14:12:55.288Z,56
2017-04-10T14:14:05.577Z,60
2017-04-10T14:15:15.857Z,56
2017-04-10T14:16:26.386Z,52
2017-04-10T14:17:36.654Z,52
2017-04-10T14:18:46.950Z,60
2017-04-10T14:19:56.917Z,60
2017-04-10T14:21:07.203Z,60
2017-04-10T14:22:17.787Z,60
2017-04-10T14:23:28.088Z,60
2017-04-10T14:24:38.368Z,48
2017-04-10T14:25:48.339Z,48
2017-04-10T14:26:58.315Z,52
2017-04-10T14:28:08.539Z,60
2017-04-10T14:29:18.863Z,60
2017-04-10T14:30:29.154Z,56
2017-04-10T14:31:39.446Z,56
2017-04-10T14:32:49.422Z,48
2017-04-10T14:34:00.006Z,52
2017-04-10T14:35:10.301Z,44
2017-04-10T14:36:20.595Z,52
2017-04-10T14:37:30.874Z,56
2017-04-10T14:38:41.177Z,56
2017-04-10T14:39:51.468Z,52
2017-04-10T14:41:01.760Z,56
2017-04-10T14:42:12.072Z,52
2017-04-10T14:43:22.031Z,52
2017-04-10T14:44:32.327Z,48
2017-04-10T14:45:42.557Z,44
2017-04-10T14:46:52.848Z,40
2017-04-10T14:48:03.141Z,36
2017-04-10T14:49:13.102Z,40
2017-04-10T14:50:23.385Z,40
2017-04-10T14:51:33.969Z,36
2017-04-10T14:52:44.262Z,40
2017-04-10T14:53:54.235Z,36
2017-04-10T14:55:04.520Z,40
2017-04-10T14:56:14.885Z,40
2017-04-10T14:57:25.474Z,36
2017-04-10T14:58:35.464Z,44
2017-04-10T14:59:45.768Z,40
2017-04-10T15:00:55.747Z,48
2017-04-10T15:02:05.734Z,44
2017-04-10T15:03:16.280Z,48
2017-04-10T15:04:26.265Z,48
2017-04-10T15:05:36.556Z,52
2017-04-10T15:06:46.845Z,48
2017-04-10T15:07:56.546Z,52
2017-04-10T15:09:06.776Z,44
2017-04-10T15:10:16.761Z,44
2017-04-10T15:11:27.060Z,44
2017-04-10T15:12:37.356Z,48
2017-04-10T15:13:47.644Z,48
2017-04-10T15:14:57.620Z,48
2017-04-10T15:16:07.927Z,44
2017-04-10T15:17:17.902Z,44
2017-04-10T15:18:28.194Z,44
2017-04-10T15:19:38.483Z,48
2017-04-10T15:20:48.704Z,44
2017-04-10T15:21:58.998Z,36
2017-04-10T15:23:09.288Z,40
2017-04-10T15:24:19.288Z,40
2017-04-10T15:25:29.584Z,36
2017-04-10T15:26:40.137Z,36
2017-04-10T15:27:50.517Z,44
2017-04-10T15:29:00.847Z,44
2017-04-10T15:30:11.145Z,48
2017-04-10T15:31:21.173Z,48
2017-04-10T15:32:31.810Z,48
2017-04-10T15:33:42.148Z,44
2017-04-10T15:34:52.465Z,44
2017-04-10T15:36:02.499Z,44
2017-04-10T15:37:12.809Z,40
2017-04-10T15:38:23.376Z,44
2017-04-10T15:39:33.694Z,48
2017-04-10T15:40:44.012Z,44
2017-04-10T15:41:54.313Z,40
2017-04-10T15:43:04.318Z,36
2017-04-10T15:44:14.583Z,32
2017-04-10T15:45:24.273Z,32
2017-04-10T15:46:34.325Z,28
2017-04-10T15:47:44.351Z,28
2017-04-10T15:48:54.663Z,28
2017-04-10T15:50:05.260Z,28
2017-04-10T15:51:15.593Z,24
2017-04-10T15:52:25.938Z,20
2017-04-10T15:53:36.231Z,20
2017-04-10T15:54:46.542Z,16
2017-04-10T15:55:56.833Z,16
2017-04-10T15:57:06.829Z,12
2017-04-10T15:58:17.139Z,12
2017-04-10T15:59:27.136Z,16
2017-04-10T16:00:36.819Z,12
2017-04-10T16:01:47.390Z,16
2017-04-10T16:02:57.072Z,12
2017-04-10T16:04:07.396Z,16
2017-04-10T16:05:17.712Z,16
2017-04-10T16:06:27.726Z,16
2017-04-10T16:07:37.990Z,20
2017-04-10T16:08:48.367Z,20
2017-04-10T16:09:58.416Z,20
2017-04-10T16:11:08.423Z,20
2017-04-10T16:12:18.442Z,24